createdAt,value
2022-12-14T00:01:29.624Z,21.20
2022-12-14T00:03:56.491Z,32.67
2022-12-14T00:06:31.475Z,27.58
2022-12-14T00:09:03.258Z,27.77
2022-12-14T00:11:30.307Z,26.88
2022-12-14T00:14:01.848Z,41.33
2022-12-14T00:16:31.050Z,37.92
2022-12-14T00:18:59.608Z,22.67
2022-12-14T00:21:26.845Z,20.98
2022-12-14T00:23:54.881Z,12.90
2022-12-14T00:26:23.159Z,13.52
2022-12-14T00:28:51.351Z,15.90
2022-12-14T00:31:18.713Z,5.78
2022-12-14T00:33:50.345Z,7.45
2022-12-14T00:36:17.216Z,15.82
2022-12-14T00:38:44.175Z,15.38
2022-12-14T00:41:11.331Z,20.83
2022-12-14T00:43:37.988Z,15.93
2022-12-14T00:46:05.153Z,16.60
2022-12-14T00:48:32.988Z,21.17
2022-12-14T00:50:59.861Z,16.30
2022-12-14T00:53:26.800Z,7.43
2022-12-14T00:55:53.496Z,4.88
2022-12-14T00:58:22.933Z,8.05
2022-12-14T01:01:05.895Z,23.13
2022-12-14T01:03:33.588Z,14.07
2022-12-14T01:06:00.429Z,18.30
2022-12-14T01:08:35.322Z,25.85
2022-12-14T01:11:07.558Z,6.97
2022-12-14T01:13:35.349Z,13.88
2022-12-14T01:16:07.020Z,21.70
2022-12-14T01:18:38.332Z,19.15
2022-12-14T01:21:23.093Z,7.50
2022-12-14T01:24:00.834Z,16.60
2022-12-14T01:26:28.768Z,12.23
2022-12-14T01:28:57.398Z,16.08
2022-12-14T01:31:28.100Z,18.52
2022-12-14T01:33:54.916Z,12.85
2022-12-14T01:36:24.314Z,12.10
2022-12-14T01:38:57.718Z,10.43
2022-12-14T01:41:24.307Z,15.15
2022-12-14T01:43:53.781Z,12.93
2022-12-14T01:46:44.070Z,21.73
2022-12-14T01:49:19.800Z,30.63
2022-12-14T01:52:16.564Z,22.50
2022-12-14T01:54:52.570Z,16.98
2022-12-14T01:57:25.777Z,16.80
2022-12-14T01:59:54.829Z,26.20
2022-12-14T02:02:22.241Z,21.40
2022-12-14T02:04:55.724Z,11.07
2022-12-14T02:07:26.515Z,22.85
2022-12-14T02:09:55.963Z,20.00
2022-12-14T02:12:34.329Z,24.88
2022-12-14T02:15:02.344Z,8.13
2022-12-14T02:17:29.153Z,13.98
2022-12-14T02:19:57.587Z,8.55
2022-12-14T02:22:39.158Z,20.98
2022-12-14T02:25:21.387Z,8.48
2022-12-14T02:27:57.237Z,16.52
2022-12-14T02:30:28.720Z,7.65
2022-12-14T02:33:28.027Z,6.10
2022-12-14T02:36:16.952Z,11.52
2022-12-14T02:39:08.380Z,6.50
2022-12-14T02:42:05.885Z,19.98
2022-12-14T02:44:44.848Z,7.38
2022-12-14T02:47:33.416Z,5.40
2022-12-14T02:50:14.227Z,6.97
2022-12-14T02:52:51.462Z,8.60
2022-12-14T02:55:24.096Z,10.00
2022-12-14T02:58:00.303Z,8.38
2022-12-14T03:00:28.996Z,9.18
2022-12-14T03:02:57.513Z,17.30
2022-12-14T03:05:24.142Z,5.40
2022-12-14T03:07:57.953Z,15.27
2022-12-14T03:10:32.091Z,21.45
2022-12-14T03:13:09.169Z,4.88
2022-12-14T03:15:40.460Z,13.35
2022-12-14T03:18:09.392Z,21.20
2022-12-14T03:20:38.653Z,16.98
2022-12-14T03:23:14.922Z,5.85
2022-12-14T03:25:47.652Z,22.25
2022-12-14T03:28:24.299Z,16.65
2022-12-14T03:31:00.347Z,14.25
2022-12-14T03:33:30.062Z,8.85
2022-12-14T03:36:26.669Z,16.95
2022-12-14T03:38:58.796Z,20.77
2022-12-14T03:42:10.433Z,11.65
2022-12-14T03:44:53.731Z,13.52
2022-12-14T03:47:58.508Z,12.50
2022-12-14T03:50:34.135Z,8.23
2022-12-14T03:53:16.187Z,4.40
2022-12-14T03:56:00.967Z,16.45
2022-12-14T03:58:36.109Z,2.50
2022-12-14T04:01:24.600Z,19.98
2022-12-14T04:06:54.846Z,9.18
2022-12-14T04:09:27.459Z,9.40
2022-12-14T04:12:28.056Z,10.93
2022-12-14T04:15:40.247Z,9.90
2022-12-14T04:18:31.217Z,9.35
2022-12-14T04:21:11.726Z,7.72
2022-12-14T04:24:05.320Z,16.95
2022-12-14T04:26:37.458Z,6.57
2022-12-14T04:29:28.161Z,7.78
2022-12-14T04:32:30.429Z,9.52
2022-12-14T04:35:32.039Z,19.88
2022-12-14T04:38:12.628Z,15.73
2022-12-14T04:40:53.393Z,4.00
2022-12-14T04:43:24.994Z,10.05
2022-12-14T04:46:13.806Z,7.95
2022-12-14T04:49:17.236Z,9.32
2022-12-14T04:51:53.847Z,10.93
2022-12-14T04:54:34.740Z,6.53
2022-12-14T04:57:06.017Z,4.85
2022-12-14T04:59:32.894Z,6.82
2022-12-14T05:02:15.716Z,8.65
2022-12-14T05:05:15.905Z,7.90
2022-12-14T05:07:51.629Z,7.15
2022-12-14T05:10:37.837Z,19.67
2022-12-14T05:13:18.644Z,7.47
2022-12-14T05:15:52.003Z,15.05
2022-12-14T05:18:19.006Z,17.25
2022-12-14T05:20:49.157Z,17.25
2022-12-14T05:23:16.525Z,8.10
2022-12-14T05:25:43.296Z,9.05
2022-12-14T05:28:10.867Z,7.97
2022-12-14T05:30:37.507Z,4.43
2022-12-14T05:33:04.308Z,15.63
2022-12-14T05:35:31.028Z,12.52
2022-12-14T05:37:57.544Z,6.20
2022-12-14T05:40:24.067Z,6.97
2022-12-14T05:42:55.523Z,12.93
2022-12-14T05:45:22.515Z,9.90
2022-12-14T05:47:49.184Z,11.10
2022-12-14T05:50:15.768Z,14.15
2022-12-14T05:52:42.300Z,7.20
2022-12-14T05:55:09.459Z,8.65
2022-12-14T05:57:35.982Z,16.67
2022-12-14T06:00:04.305Z,13.88
2022-12-14T06:02:30.975Z,15.25
2022-12-14T06:04:57.603Z,13.05
2022-12-14T06:07:27.827Z,19.98
2022-12-14T06:09:54.890Z,8.30
2022-12-14T06:12:21.528Z,20.00
2022-12-14T06:14:48.123Z,11.30
2022-12-14T06:17:14.887Z,19.63
2022-12-14T06:19:41.504Z,10.40
2022-12-14T06:22:08.018Z,7.35
2022-12-14T06:24:34.570Z,14.80
2022-12-14T06:27:01.200Z,3.20
2022-12-14T06:29:27.792Z,10.50
2022-12-14T06:31:54.301Z,14.65
2022-12-14T06:34:26.375Z,8.15
2022-12-14T06:36:55.074Z,8.18
2022-12-14T06:39:21.616Z,13.57
2022-12-14T06:41:51.859Z,15.13
2022-12-14T06:44:18.838Z,6.30
2022-12-14T06:46:45.559Z,8.25
2022-12-14T06:49:14.610Z,8.10
2022-12-14T06:51:41.818Z,5.40
2022-12-14T06:54:11.339Z,3.20
2022-12-14T06:56:38.822Z,8.48
2022-12-14T06:59:05.623Z,14.07
2022-12-14T07:01:32.319Z,6.82
2022-12-14T07:03:59.717Z,10.43
2022-12-14T07:06:28.687Z,10.65
2022-12-14T07:08:59.327Z,9.55
2022-12-14T07:11:27.256Z,6.35
2022-12-14T07:13:54.872Z,18.17
2022-12-14T07:16:24.844Z,12.50
2022-12-14T07:18:52.541Z,13.55
2022-12-14T07:21:20.670Z,18.23
2022-12-14T07:23:49.218Z,14.20
2022-12-14T07:26:20.801Z,20.80
2022-12-14T07:28:47.817Z,7.03
2022-12-14T07:31:17.383Z,15.90
2022-12-14T07:33:44.497Z,9.88
2022-12-14T07:36:15.878Z,8.65
2022-12-14T07:38:44.024Z,18.58
2022-12-14T07:41:22.788Z,8.05
2022-12-14T07:43:50.568Z,12.15
2022-12-14T07:46:20.010Z,10.30
2022-12-14T07:48:48.849Z,9.60
2022-12-14T07:51:17.514Z,6.40
2022-12-14T07:53:44.346Z,10.10
2022-12-14T07:56:15.942Z,17.90
2022-12-14T07:58:42.811Z,6.40
2022-12-14T08:01:12.637Z,13.52
2022-12-14T08:03:44.377Z,18.63
2022-12-14T08:06:11.941Z,10.07
2022-12-14T08:08:38.933Z,18.25
2022-12-14T08:11:06.669Z,9.90
2022-12-14T08:13:33.571Z,19.02
2022-12-14T08:16:11.678Z,5.80
2022-12-14T08:18:38.652Z,17.75
2022-12-14T08:21:07.223Z,14.73
2022-12-14T08:23:34.799Z,10.90
2022-12-14T08:26:02.668Z,12.13
2022-12-14T08:28:31.416Z,11.35
2022-12-14T08:31:02.930Z,12.38
2022-12-14T08:33:29.878Z,19.60
2022-12-14T08:35:56.761Z,10.70
2022-12-14T08:38:23.294Z,19.05
2022-12-14T08:40:49.845Z,20.40
2022-12-14T08:43:19.035Z,14.25
2022-12-14T08:45:49.859Z,9.82
2022-12-14T08:48:16.493Z,15.15
2022-12-14T08:50:43.000Z,14.93
2022-12-14T08:53:09.536Z,17.35
2022-12-14T08:55:38.705Z,13.18
2022-12-14T08:58:05.563Z,19.35
2022-12-14T09:00:32.189Z,13.60
2022-12-14T09:02:58.802Z,15.95
2022-12-14T09:05:25.520Z,21.67
2022-12-14T09:07:52.119Z,18.08
2022-12-14T09:10:18.680Z,18.33
2022-12-14T09:12:45.236Z,17.92
2022-12-14T09:15:11.974Z,18.55
2022-12-14T09:17:38.513Z,21.35
2022-12-14T09:20:06.616Z,14.93
2022-12-14T09:22:33.214Z,10.38
2022-12-14T09:24:59.761Z,18.15
2022-12-14T09:27:26.348Z,18.88
2022-12-14T09:29:53.421Z,22.67
2022-12-14T09:32:20.363Z,23.08
2022-12-14T09:34:46.878Z,20.63
2022-12-14T09:37:14.393Z,16.52
2022-12-14T09:39:40.955Z,17.58
2022-12-14T09:42:50.909Z,13.52
2022-12-14T09:45:25.383Z,13.85
2022-12-14T09:48:04.239Z,14.90
2022-12-14T09:50:31.349Z,15.60
2022-12-14T09:53:01.511Z,18.05
2022-12-14T09:55:48.910Z,16.65
2022-12-14T09:58:36.272Z,22.35
2022-12-14T10:01:22.285Z,14.68
2022-12-14T10:04:18.435Z,9.27
2022-12-14T10:06:45.121Z,17.63
2022-12-14T10:09:11.629Z,10.85
2022-12-14T10:11:53.593Z,20.02
2022-12-14T10:14:23.093Z,15.55
2022-12-14T10:17:02.905Z,10.60
2022-12-14T10:19:42.035Z,23.13
2022-12-14T10:22:14.027Z,18.23
2022-12-14T10:24:44.853Z,8.13
2022-12-14T10:27:22.646Z,17.48
2022-12-14T10:29:59.957Z,16.83
2022-12-14T10:32:35.436Z,15.27
2022-12-14T10:35:14.543Z,23.38
2022-12-14T10:38:04.560Z,20.60
2022-12-14T10:40:34.748Z,23.17
2022-12-14T10:43:26.567Z,10.27
2022-12-14T10:46:15.052Z,9.48
2022-12-14T10:48:47.483Z,13.00
2022-12-14T10:51:23.196Z,20.13
2022-12-14T10:53:55.192Z,11.55
2022-12-14T10:56:31.468Z,11.00
2022-12-14T10:59:23.577Z,15.13
2022-12-14T11:01:55.126Z,17.02
2022-12-14T11:04:37.231Z,9.88
2022-12-14T11:07:09.164Z,10.88
2022-12-14T11:09:37.609Z,8.27
2022-12-14T11:12:14.359Z,16.10
2022-12-14T11:15:01.958Z,18.23
2022-12-14T11:17:40.639Z,13.93
2022-12-14T11:20:16.422Z,10.38
2022-12-14T11:22:57.910Z,6.97
2022-12-14T11:25:29.119Z,7.50
2022-12-14T11:27:58.211Z,19.50
2022-12-14T11:30:24.918Z,8.48
2022-12-14T11:32:52.092Z,20.85
2022-12-14T11:35:21.999Z,20.15
2022-12-14T11:37:50.325Z,20.77
2022-12-14T11:40:25.349Z,20.00
2022-12-14T11:42:59.603Z,17.33
2022-12-14T11:45:26.188Z,15.57
2022-12-14T11:48:14.572Z,16.70
2022-12-14T11:53:16.843Z,10.82
2022-12-14T11:55:57.461Z,19.50
2022-12-14T11:58:29.214Z,8.85
2022-12-14T12:01:02.658Z,13.23
2022-12-14T12:03:39.416Z,23.27
2022-12-14T12:06:09.608Z,25.48
2022-12-14T12:08:39.984Z,21.92
2022-12-14T12:11:18.009Z,16.27
2022-12-14T12:13:47.992Z,11.30
2022-12-14T12:16:17.385Z,14.23
2022-12-14T12:18:56.546Z,20.40
2022-12-14T12:21:28.315Z,15.93
2022-12-14T12:24:07.765Z,15.07
2022-12-14T12:26:42.500Z,15.07
2022-12-14T12:29:19.656Z,23.23
2022-12-14T12:31:55.199Z,11.77
2022-12-14T12:34:31.558Z,29.42
2022-12-14T12:37:25.941Z,19.33
2022-12-14T12:39:56.875Z,17.45
2022-12-14T12:42:26.978Z,14.05
2022-12-14T12:45:20.913Z,25.25
2022-12-14T12:47:53.987Z,24.75
2022-12-14T12:50:26.129Z,18.00
2022-12-14T12:53:03.613Z,24.40
2022-12-14T12:55:40.319Z,22.88
2022-12-14T12:58:17.725Z,23.23
2022-12-14T13:00:46.013Z,28.98
2022-12-14T13:03:45.802Z,12.05
2022-12-14T13:06:40.580Z,14.57
2022-12-14T13:09:18.175Z,11.60
2022-12-14T13:11:45.845Z,21.70
2022-12-14T13:14:34.333Z,30.08
2022-12-14T13:17:05.126Z,11.48
2022-12-14T13:19:55.135Z,10.50
2022-12-14T13:22:29.213Z,16.98
2022-12-14T13:25:00.178Z,18.77
2022-12-14T13:27:40.793Z,27.77
2022-12-14T13:30:17.597Z,13.95
2022-12-14T13:33:21.270Z,22.08
2022-12-14T13:36:25.395Z,10.75
2022-12-14T13:39:27.084Z,25.38
2022-12-14T13:42:03.562Z,26.02
2022-12-14T13:45:06.433Z,26.75
2022-12-14T13:47:39.670Z,22.27
2022-12-14T13:53:05.989Z,25.88
2022-12-14T13:55:36.150Z,27.98
2022-12-14T13:58:29.701Z,16.90
2022-12-14T14:01:05.327Z,18.92
2022-12-14T14:03:35.123Z,18.90
2022-12-14T14:06:07.396Z,10.70
2022-12-14T14:08:41.823Z,27.33
2022-12-14T14:11:36.505Z,12.50
2022-12-14T14:14:03.797Z,30.25
2022-12-14T14:16:37.878Z,28.15
2022-12-14T14:19:07.999Z,28.52
2022-12-14T14:22:06.279Z,15.18
2022-12-14T14:24:52.175Z,29.23
2022-12-14T14:27:22.018Z,29.13
2022-12-14T14:29:50.086Z,22.42
2022-12-14T14:32:39.958Z,29.58
2022-12-14T14:35:20.633Z,9.32
2022-12-14T14:38:07.402Z,33.25
2022-12-14T14:41:15.412Z,37.75
2022-12-14T14:43:46.790Z,34.25
2022-12-14T14:46:22.245Z,29.40
2022-12-14T14:48:54.668Z,31.95
2022-12-14T14:51:26.530Z,26.13
2022-12-14T14:54:44.901Z,32.45
2022-12-14T14:57:54.482Z,33.08
2022-12-14T15:00:21.026Z,28.65
2022-12-14T15:02:50.719Z,32.53
2022-12-14T15:08:39.252Z,24.60
2022-12-14T15:11:15.202Z,29.10
2022-12-14T15:16:45.521Z,33.17
2022-12-14T15:19:22.539Z,29.05
2022-12-14T15:21:58.539Z,28.52
2022-12-14T15:26:53.035Z,31.45
2022-12-14T15:29:25.738Z,29.70
2022-12-14T15:31:59.800Z,31.05
2022-12-14T15:34:27.548Z,32.53
2022-12-14T15:36:54.667Z,31.10
2022-12-14T15:39:29.530Z,32.92
2022-12-14T15:42:15.056Z,33.63
2022-12-14T15:45:14.289Z,36.70
2022-12-14T15:47:40.864Z,29.67
2022-12-14T15:50:14.352Z,33.28
2022-12-14T15:52:43.014Z,30.27
2022-12-14T15:55:32.403Z,34.33
2022-12-14T15:58:07.771Z,30.13
2022-12-14T16:00:36.401Z,30.83
2022-12-14T16:03:13.994Z,31.65
2022-12-14T16:05:40.735Z,31.10
2022-12-14T16:08:10.523Z,34.65
2022-12-14T16:13:14.685Z,29.80
2022-12-14T16:15:42.543Z,29.67
2022-12-14T16:18:14.953Z,35.78
2022-12-14T16:20:44.667Z,31.45
2022-12-14T16:25:59.472Z,25.00
2022-12-14T16:28:33.441Z,23.58
2022-12-14T16:31:13.758Z,28.40
2022-12-14T16:33:43.270Z,28.52
2022-12-14T16:36:21.886Z,37.53
2022-12-14T16:38:56.589Z,13.02
2022-12-14T16:41:39.775Z,35.80
2022-12-14T16:44:10.226Z,33.97
2022-12-14T16:46:36.769Z,18.55
2022-12-14T16:49:29.319Z,41.25
2022-12-14T16:52:08.836Z,32.72
2022-12-14T16:54:37.708Z,36.17
2022-12-14T16:57:24.502Z,38.10
2022-12-14T17:00:03.865Z,42.60
2022-12-14T17:02:44.200Z,45.35
2022-12-14T17:05:19.650Z,37.88
2022-12-14T17:07:46.613Z,42.85
2022-12-14T17:10:19.133Z,42.65
2022-12-14T17:12:45.843Z,37.95
2022-12-14T17:15:14.438Z,33.40
2022-12-14T17:17:41.315Z,37.75
2022-12-14T17:20:14.043Z,34.70
2022-12-14T17:22:41.736Z,37.30
2022-12-14T17:25:12.343Z,33.33
2022-12-14T17:27:39.073Z,31.50
2022-12-14T17:30:06.077Z,44.38
2022-12-14T17:32:32.886Z,41.60
2022-12-14T17:35:00.427Z,39.35
2022-12-14T17:37:32.413Z,35.67
2022-12-14T17:40:02.455Z,39.70
2022-12-14T17:42:29.106Z,40.40
2022-12-14T17:44:57.270Z,36.83
2022-12-14T17:47:24.438Z,41.15
2022-12-14T17:49:51.211Z,46.67
2022-12-14T17:52:24.728Z,42.17
2022-12-14T17:54:51.436Z,45.58
2022-12-14T17:57:20.422Z,44.92
2022-12-14T17:59:47.884Z,46.63
2022-12-14T18:02:31.566Z,43.17
2022-12-14T18:04:58.390Z,44.97
2022-12-14T18:07:24.956Z,44.95
2022-12-14T18:09:53.338Z,43.08
2022-12-14T18:12:24.747Z,43.50
2022-12-14T18:14:52.207Z,45.50
2022-12-14T18:17:18.949Z,43.28
2022-12-14T18:19:45.477Z,48.95
2022-12-14T18:22:14.688Z,43.45
2022-12-14T18:24:41.238Z,45.72
2022-12-14T18:27:07.830Z,48.67
2022-12-14T18:29:34.320Z,50.10
2022-12-14T18:32:00.962Z,43.90
2022-12-14T18:34:27.566Z,45.08
2022-12-14T18:36:54.401Z,46.08
2022-12-14T18:39:20.986Z,42.35
2022-12-14T18:41:47.602Z,48.95
2022-12-14T18:44:16.544Z,45.40
2022-12-14T18:46:43.173Z,45.30
2022-12-14T18:49:15.834Z,53.92
2022-12-14T18:51:42.597Z,47.63
2022-12-14T18:54:09.502Z,48.65
2022-12-14T18:56:36.011Z,45.83
2022-12-14T18:59:02.723Z,50.90
2022-12-14T19:01:29.404Z,45.90
2022-12-14T19:03:56.156Z,44.75
2022-12-14T19:09:12.831Z,27.63
2022-12-14T19:11:41.931Z,47.92
2022-12-14T19:14:09.289Z,48.13
2022-12-14T19:16:36.041Z,45.03
2022-12-14T19:19:02.861Z,48.30
2022-12-14T19:21:31.185Z,47.67
2022-12-14T19:23:59.442Z,54.80
2022-12-14T19:26:28.532Z,50.25
2022-12-14T19:28:55.288Z,47.55
2022-12-14T19:31:21.935Z,44.83
2022-12-14T19:33:48.757Z,46.80
2022-12-14T19:36:15.366Z,43.28
2022-12-14T19:38:41.959Z,42.42
2022-12-14T19:41:11.915Z,51.42
2022-12-14T19:43:39.141Z,38.97
2022-12-14T19:46:07.892Z,42.80
2022-12-14T19:48:34.736Z,39.67
2022-12-14T19:51:11.983Z,43.00
2022-12-14T19:53:40.365Z,44.95
2022-12-14T19:56:07.213Z,30.23
2022-12-14T19:58:33.825Z,54.55
2022-12-14T20:01:00.995Z,43.58
2022-12-14T20:03:28.122Z,42.40
2022-12-14T20:05:58.633Z,41.03
2022-12-14T20:08:27.794Z,43.63
2022-12-14T20:10:55.233Z,40.78
2022-12-14T20:13:26.485Z,42.67
2022-12-14T20:15:58.341Z,37.92
2022-12-14T20:18:27.143Z,44.38
2022-12-14T20:21:00.141Z,35.90
2022-12-14T20:23:26.689Z,43.95
2022-12-14T20:26:00.209Z,41.33
2022-12-14T20:28:29.968Z,32.15
2022-12-14T20:30:56.621Z,34.10
2022-12-14T20:33:29.671Z,46.83
2022-12-14T20:35:56.943Z,46.28
2022-12-14T20:38:23.493Z,35.65
2022-12-14T20:40:50.645Z,38.53
2022-12-14T20:43:17.316Z,42.97
2022-12-14T20:45:44.263Z,41.53
2022-12-14T20:48:11.404Z,46.30
2022-12-14T20:50:40.239Z,42.85
2022-12-14T20:53:07.535Z,44.60
2022-12-14T20:55:35.151Z,43.30
2022-12-14T20:58:01.915Z,45.15
2022-12-14T21:00:28.764Z,45.53
2022-12-14T21:02:58.315Z,44.42
2022-12-14T21:05:25.189Z,25.42
2022-12-14T21:07:52.157Z,40.88
2022-12-14T21:10:21.157Z,39.88
2022-12-14T21:12:55.080Z,16.98
2022-12-14T21:15:21.712Z,38.95
2022-12-14T21:17:48.543Z,20.95
2022-12-14T21:20:15.334Z,43.65
2022-12-14T21:22:44.733Z,51.83
2022-12-14T21:25:11.320Z,28.73
2022-12-14T21:27:39.183Z,32.58
2022-12-14T21:30:08.955Z,36.67
2022-12-14T21:32:37.033Z,33.45
2022-12-14T21:35:07.160Z,44.60
2022-12-14T21:37:39.766Z,38.30
2022-12-14T21:40:15.762Z,40.95
2022-12-14T21:42:44.382Z,18.30
2022-12-14T21:45:11.179Z,27.35
2022-12-14T21:47:37.718Z,27.52
2022-12-14T21:50:06.390Z,21.70
2022-12-14T21:52:33.082Z,18.77
2022-12-14T21:54:59.926Z,38.92
2022-12-14T21:57:49.700Z,29.88
2022-12-14T22:00:18.211Z,12.50
2022-12-14T22:02:45.002Z,28.67
2022-12-14T22:05:11.809Z,42.53
2022-12-14T22:07:38.388Z,32.85
2022-12-14T22:10:05.707Z,45.08
2022-12-14T22:12:35.247Z,51.63
2022-12-14T22:15:01.822Z,25.90
2022-12-14T22:17:28.364Z,18.60
2022-12-14T22:19:55.492Z,18.75
2022-12-14T22:22:22.697Z,30.40
2022-12-14T22:24:51.140Z,36.03
2022-12-14T22:27:18.613Z,49.03
2022-12-14T22:29:46.375Z,41.65
2022-12-14T22:32:13.336Z,41.72
2022-12-14T22:34:39.979Z,24.77
2022-12-14T22:37:07.242Z,38.70
2022-12-14T22:39:33.861Z,35.95
2022-12-14T22:42:00.407Z,33.45
2022-12-14T22:44:27.128Z,35.15
2022-12-14T22:46:53.755Z,12.73
2022-12-14T22:49:20.380Z,12.90
2022-12-14T22:51:47.075Z,22.65
2022-12-14T22:54:31.836Z,29.67
2022-12-14T22:57:09.031Z,18.40
2022-12-14T22:59:45.228Z,36.63
2022-12-14T23:02:12.080Z,19.48
2022-12-14T23:04:39.085Z,38.58
2022-12-14T23:07:05.920Z,40.05
2022-12-14T23:09:50.970Z,36.90
2022-12-14T23:12:37.681Z,34.10
2022-12-14T23:15:23.116Z,40.55
2022-12-14T23:18:08.443Z,40.92
2022-12-14T23:20:53.884Z,41.95
2022-12-14T23:23:42.010Z,40.13
2022-12-14T23:26:29.781Z,37.80
2022-12-14T23:29:14.658Z,42.13
2022-12-14T23:31:59.573Z,37.42
2022-12-14T23:34:44.407Z,37.28
2022-12-14T23:37:33.100Z,38.22
2022-12-14T23:40:17.841Z,34.28
2022-12-14T23:43:02.761Z,41.65
2022-12-14T23:45:47.458Z,38.58
2022-12-14T23:48:32.641Z,37.75
2022-12-14T23:51:18.943Z,43.90
2022-12-14T23:54:03.810Z,36.38
2022-12-14T23:56:48.571Z,38.97
2022-12-14T23:59:33.950Z,42.30
